createdAt,value
2022-12-17T00:01:09.968Z,100322.66
2022-12-17T00:03:57.807Z,100315.59
2022-12-17T00:06:45.767Z,100314.75
2022-12-17T00:09:33.483Z,100324.48
2022-12-17T00:12:21.151Z,100321.00
2022-12-17T00:15:08.599Z,100326.27
2022-12-17T00:17:56.082Z,100317.56
2022-12-17T00:20:44.469Z,100310.47
2022-12-17T00:23:34.685Z,100321.00
2022-12-17T00:26:22.921Z,100331.55
2022-12-17T00:29:10.857Z,100335.16
2022-12-17T00:31:58.465Z,100330.07
2022-12-17T00:34:45.247Z,100325.78
2022-12-17T00:37:33.021Z,100330.22
2022-12-17T00:40:20.848Z,100322.49
2022-12-17T00:43:18.695Z,100316.38
2022-12-17T00:46:09.873Z,100317.37
2022-12-17T00:48:58.431Z,100308.80
2022-12-17T00:51:51.911Z,100308.98
2022-12-17T00:54:39.652Z,100307.33
2022-12-17T00:57:27.222Z,100310.29
2022-12-17T01:00:14.989Z,100305.17
2022-12-17T01:03:02.866Z,100303.70
2022-12-17T01:05:50.502Z,100317.84
2022-12-17T01:08:37.952Z,100312.73
2022-12-17T01:11:26.949Z,100326.07
2022-12-17T01:14:14.783Z,100328.84
2022-12-17T01:17:02.558Z,100350.91
2022-12-17T01:19:50.385Z,100343.98
2022-12-17T01:22:38.201Z,100332.79
2022-12-17T01:25:27.985Z,100329.48
2022-12-17T01:28:15.546Z,100330.33
2022-12-17T01:31:03.341Z,100327.03
2022-12-17T01:33:53.875Z,100320.12
2022-12-17T01:36:41.304Z,100321.91
2022-12-17T01:39:28.970Z,100314.19
2022-12-17T01:42:25.330Z,100326.52
2022-12-17T01:45:13.881Z,100326.69
2022-12-17T01:48:08.490Z,100323.21
2022-12-17T01:51:00.334Z,100325.84
2022-12-17T01:53:53.003Z,100351.51
2022-12-17T01:56:40.300Z,100355.13
2022-12-17T01:59:28.832Z,100348.20
2022-12-17T02:02:17.119Z,100355.44
2022-12-17T02:05:05.017Z,100359.90
2022-12-17T02:08:12.103Z,100367.94
2022-12-17T02:11:06.096Z,100355.76
2022-12-17T02:13:58.449Z,100350.49
2022-12-17T02:16:53.211Z,100349.69
2022-12-17T02:19:49.730Z,100344.42
2022-12-17T02:22:44.872Z,100328.94
2022-12-17T02:25:41.660Z,100320.20
2022-12-17T02:28:29.862Z,100316.09
2022-12-17T02:31:19.190Z,100317.08
2022-12-17T02:34:07.986Z,100312.94
2022-12-17T02:36:55.645Z,100311.30
2022-12-17T02:39:43.215Z,100309.50
2022-12-17T02:42:30.968Z,100307.02
2022-12-17T02:45:20.427Z,100307.99
2022-12-17T02:48:11.112Z,100312.45
2022-12-17T02:50:58.852Z,100303.05
2022-12-17T02:53:48.751Z,100298.77
2022-12-17T02:56:36.712Z,100284.80
2022-12-17T02:59:24.405Z,100282.31
2022-12-17T03:02:17.536Z,100272.77
2022-12-17T03:05:27.675Z,100266.84
2022-12-17T03:08:13.192Z,100274.73
2022-12-17T03:11:01.611Z,100266.03
2022-12-17T03:13:49.529Z,100265.36
2022-12-17T03:16:38.426Z,100260.10
2022-12-17T03:19:28.018Z,100255.82
2022-12-17T03:22:15.878Z,100255.97
2022-12-17T03:25:03.367Z,100259.58
2022-12-17T03:27:50.908Z,100259.75
2022-12-17T03:30:39.261Z,100260.07
2022-12-17T03:33:29.491Z,100247.90
2022-12-17T03:36:16.917Z,100241.80
2022-12-17T03:39:04.672Z,100234.89
2022-12-17T03:41:52.142Z,100247.37
2022-12-17T03:44:40.003Z,100237.84
2022-12-17T03:47:27.365Z,100234.39
2022-12-17T03:50:17.867Z,100223.20
2022-12-17T03:53:05.500Z,100217.11
2022-12-17T03:55:53.724Z,100220.89
2022-12-17T03:58:41.672Z,100222.69
2022-12-17T04:01:29.948Z,100224.65
2022-12-17T04:04:17.963Z,100215.95
2022-12-17T04:07:06.962Z,100200.31
2022-12-17T04:09:54.247Z,100190.95
2022-12-17T04:12:41.724Z,100196.34
2022-12-17T04:15:29.864Z,100217.39
2022-12-17T04:18:17.525Z,100221.17
2022-12-17T04:21:05.987Z,100237.94
2022-12-17T04:24:05.288Z,100249.44
2022-12-17T04:26:52.825Z,100264.55
2022-12-17T04:29:44.663Z,100263.88
2022-12-17T04:32:35.566Z,100269.45
2022-12-17T04:35:24.713Z,100273.20
2022-12-17T04:38:12.250Z,100276.01
2022-12-17T04:40:59.736Z,100265.80
2022-12-17T04:43:47.460Z,100266.61
2022-12-17T04:46:35.008Z,100286.97
2022-12-17T04:49:22.947Z,100277.44
2022-12-17T04:52:10.471Z,100276.62
2022-12-17T04:54:58.185Z,100278.42
2022-12-17T04:57:48.090Z,100284.66
2022-12-17T05:00:35.996Z,100289.11
2022-12-17T05:03:26.102Z,100309.47
2022-12-17T05:06:14.268Z,100311.56
2022-12-17T05:09:02.560Z,100313.38
2022-12-17T05:11:50.659Z,100312.71
2022-12-17T05:14:38.183Z,100309.41
2022-12-17T05:17:26.220Z,100328.63
2022-12-17T05:20:14.007Z,100324.34
2022-12-17T05:23:01.619Z,100309.72
2022-12-17T05:25:49.100Z,100319.25
2022-12-17T05:28:36.645Z,100305.27
2022-12-17T05:31:24.874Z,100302.81
2022-12-17T05:34:12.235Z,100306.25
2022-12-17T05:36:59.764Z,100299.34
2022-12-17T05:39:47.460Z,100306.42
2022-12-17T05:42:34.941Z,100302.95
2022-12-17T05:45:23.736Z,100296.04
2022-12-17T05:48:16.460Z,100292.60
2022-12-17T05:51:07.064Z,100297.02
2022-12-17T05:53:54.434Z,100281.42
2022-12-17T05:56:42.027Z,100278.79
2022-12-17T05:59:29.521Z,100295.53
2022-12-17T06:02:17.117Z,100287.80
2022-12-17T06:05:05.131Z,100277.45
2022-12-17T06:07:52.463Z,100259.86
2022-12-17T06:10:39.928Z,100233.75
2022-12-17T06:13:27.292Z,100214.52
2022-12-17T06:16:14.994Z,100218.29
2022-12-17T06:19:02.807Z,100222.88
2022-12-17T06:21:51.279Z,100215.97
2022-12-17T06:24:42.762Z,100210.85
2022-12-17T06:27:34.456Z,100224.16
2022-12-17T06:30:25.121Z,100234.00
2022-12-17T06:33:22.681Z,100232.18
2022-12-17T06:36:18.071Z,100224.30
2022-12-17T06:39:09.290Z,100245.32
2022-12-17T06:42:02.302Z,100251.55
2022-12-17T06:44:52.058Z,100243.67
2022-12-17T06:47:39.576Z,100230.39
2022-12-17T06:50:28.013Z,100228.58
2022-12-17T06:53:20.352Z,100227.59
2022-12-17T06:56:16.660Z,100213.48
2022-12-17T06:59:04.119Z,100227.15
2022-12-17T07:01:51.793Z,100223.37
2022-12-17T07:04:40.819Z,100216.16
2022-12-17T07:07:28.265Z,100224.58
2022-12-17T07:10:15.821Z,100229.52
2022-12-17T07:13:04.751Z,100231.53
2022-12-17T07:15:52.991Z,100223.02
2022-12-17T07:18:40.519Z,100233.89
2022-12-17T07:21:28.160Z,100239.19
2022-12-17T07:24:15.807Z,100241.86
2022-12-17T07:27:03.988Z,100239.27
2022-12-17T07:29:52.893Z,100237.17
2022-12-17T07:32:40.967Z,100236.88
2022-12-17T07:35:31.802Z,100317.19
2022-12-17T07:38:20.863Z,100381.10
2022-12-17T07:41:16.677Z,100371.12
2022-12-17T07:44:05.055Z,100406.41
2022-12-17T07:46:52.904Z,100416.34
2022-12-17T07:49:40.606Z,100421.66
2022-12-17T07:52:28.041Z,100410.17
2022-12-17T07:55:18.406Z,100418.11
2022-12-17T07:58:15.413Z,100433.80
2022-12-17T08:01:04.972Z,100444.69
2022-12-17T08:03:53.083Z,100482.80
2022-12-17T08:06:40.648Z,100506.22
2022-12-17T08:09:29.983Z,100503.89
2022-12-17T08:12:17.139Z,100511.30
2022-12-17T08:15:04.572Z,100496.70
2022-12-17T08:17:52.570Z,100517.11
2022-12-17T08:20:40.549Z,100522.64
2022-12-17T08:23:28.725Z,100508.63
2022-12-17T08:26:17.525Z,100517.88
2022-12-17T08:29:05.307Z,100507.30
2022-12-17T08:31:53.918Z,100482.25
2022-12-17T08:34:41.398Z,100482.03
2022-12-17T08:37:29.814Z,100490.08
2022-12-17T08:40:18.001Z,100491.00
2022-12-17T08:43:05.830Z,100498.01
2022-12-17T08:45:55.881Z,100486.97
2022-12-17T08:48:43.801Z,100486.83
2022-12-17T08:51:32.088Z,100495.17
2022-12-17T08:54:20.245Z,100462.66
2022-12-17T08:57:07.946Z,100473.19
2022-12-17T08:59:55.421Z,100459.02
2022-12-17T09:02:44.133Z,100467.70
2022-12-17T10:38:49.423Z,100234.20
2022-12-17T10:41:43.028Z,100255.17
2022-12-17T10:44:45.813Z,100292.00
2022-12-17T10:47:35.892Z,100297.51
2022-12-17T10:50:30.887Z,100319.86
2022-12-17T10:53:20.310Z,100334.00
2022-12-17T10:56:10.948Z,100336.56
2022-12-17T11:16:14.978Z,100369.58
2022-12-17T11:21:54.575Z,100291.33
2022-12-17T11:24:46.343Z,100280.41
2022-12-17T11:27:39.960Z,100296.28
2022-12-17T11:30:30.945Z,100317.96
2022-12-17T11:33:29.049Z,100329.36
2022-12-17T11:36:32.575Z,100320.98
2022-12-17T19:09:35.103Z,100909.09
2022-12-17T20:59:33.434Z,101070.72
2022-12-17T21:02:03.736Z,101070.89
2022-12-17T21:04:33.291Z,101073.37
2022-12-17T21:07:02.726Z,101070.89
2022-12-17T21:09:32.249Z,101068.40
2022-12-17T21:12:01.640Z,101076.34
2022-12-17T21:14:35.517Z,101072.03
2022-12-17T23:37:52.228Z,101209.45
2022-12-17T23:40:22.358Z,101220.17
2022-12-17T23:42:51.972Z,101222.94
2022-12-17T23:45:21.360Z,101225.73
2022-12-17T23:47:50.820Z,101225.86
2022-12-17T23:50:20.236Z,101229.34
2022-12-17T23:52:49.823Z,101241.84
